METAR Data
IDs: Format: Raw Decoded Include TAF

Data at: 1252 UTC 07 Jul 2020

KGSP 071212Z 04005KT 1SM +RA BR BKN017 OVC025 22/21 A3006 RMK AO2 P0008 T02170206
KGSP 071201Z 06005KT 1 3/4SM +RA BR BKN017 OVC032 22/21 A3006 RMK AO2 P0001 T02220206
KGSP 071153Z 06004KT 7SM -RA OVC017 22/21 A3006 RMK AO2 RAB47 SLP167 P0000 60001 70015 T02220206 10222 20217 51007
KGSP 071112Z 04005KT 10SM BKN015 OVC035 22/21 A3005 RMK AO2 T02170206
KGSP 071053Z 04005KT 10SM SCT014 BKN035 BKN110 22/21 A3005 RMK AO2 RAE14 SLP164 P0000 T02170206
KGSP 070953Z 05005KT 4SM -RA BR BKN007 OVC014 22/21 A3005 RMK AO2 RAB45 SLP164 P0001 T02170206
KGSP 070932Z AUTO 05005KT 10SM SCT008 OVC014 22/21 A3004 RMK AO2 T02170206
KGSP 070915Z AUTO 05004KT 10SM OVC014 22/21 A3004 RMK AO2 T02170206
KGSP 070853Z AUTO 05005KT 10SM OVC017 22/21 A3004 RMK AO2 SLP160 60000 T02170206 58013
KGSP 070835Z AUTO 05006KT 10SM SCT003 OVC018 22/21 A3004 RMK AO2 T02170206
KGSP 070807Z AUTO 04004KT 9SM BKN002 BKN014 OVC022 22/21 A3005 RMK AO2 T02170206
KGSP 070753Z AUTO 04005KT 9SM FEW002 BKN016 OVC022 22/21 A3005 RMK AO2 SLP163 T02170206
KGSP 070741Z AUTO 04005KT 9SM SCT002 OVC018 22/21 A3005 RMK AO2 T02170206
KGSP 070653Z AUTO 03004KT 10SM BKN024 BKN030 OVC050 22/21 A3006 RMK AO2 RAB13E38 SLP169 P0000 T02170206
KGSP 070553Z AUTO 03005KT 10SM FEW039 BKN055 22/21 A3007 RMK AO2 SLP174 T02170206 10239 20217 58003
KGSP 070453Z AUTO 03003KT 10SM CLR 22/21 A3008 RMK AO2 SLP173 T02170206 402890194
KGSP 070414Z AUTO 05004KT 10SM SCT016 22/21 A3008 RMK AO2 T02170206
KGSP 070353Z AUTO 05003KT 10SM SCT017 BKN027 22/21 A3008 RMK AO2 SLP176 T02170206
KGSP 070253Z 00000KT 10SM FEW007 SCT043 BKN060 22/21 A3008 RMK AO2 SLP174 T02220206 50002
KGSP 070153Z COR 00000KT 10SM FEW007 SCT043 BKN060 22/20 A3008 RMK AO2 SLP176 T02220200
KGSP 070145Z 00000KT 10SM FEW007 OVC046 22/20 A3008 RMK AO2 T02220200
KGSP 070053Z 16004KT 10SM CLR 23/20 A3008 RMK AO2 SLP174 T02280200
KGSP 062353Z 16006KT 10SM FEW060 24/20 A3007 RMK AO2 SLP173 60014 T02390200 10272 20217 53002
KGSP 062253Z 13005KT 10SM CLR 26/20 A3007 RMK AO2 SLP173 T02560200
KGSP 062153Z 10008KT 10SM SCT070 SCT085 BKN120 26/22 A3006 RMK AO2 LTG DSNT S AND SW SLP169 T02610217
KGSP 062053Z 09007KT 10SM FEW065 26/22 A3007 RMK AO2 LTG DSNT E AND S SLP171 60014 T02560217 56010
KGSP 061953Z 05007KT 10SM FEW050 BKN090 27/22 A3007 RMK AO2 LTG DSNT SE SLP170 T02670217
KGSP 061911Z 08007KT 10SM SCT080 SCT110 27/22 A3007 RMK AO2 LTG DSNT NE T02670222
KGSP 061853Z 07005KT 10SM VCTS FEW029 SCT070 SCT090 25/22 A3006 RMK AO2 WSHFT 1740 RAE35 TSE02 SLP171 P0014 T02500222
KGSP 061839Z 07008KT 10SM FEW027 BKN060 BKN075 24/22 A3007 RMK AO2 WSHFT 1740 LTG DSNT SE RAE35 TSE02 P0014 T02390222
KGSP 061815Z 00000KT 4SM VCTS +RA BR FEW025 BKN038 OVC060 22/21 A3008 RMK AO2 WSHFT 1740 LTG DSNT E TSE02 P0011 T02220206
KGSP 061808Z 21006KT 2 1/2SM VCTS -RA BR FEW022 BKN038 OVC060 22/21 A3008 RMK AO2 WSHFT 1740 LTG DSNT E TSE02 P0011 T02220206
KGSP 061759Z 16011KT 2 1/2SM -TSRA BR FEW023 BKN032 OVC055 22/21 A3009 RMK AO2 WSHFT 1740 LTG DSNT E P0001 T02220206
KGSP 061753Z 16014G21KT 4SM -TSRA BR FEW023 SCT028 OVC036 23/21 A3010 RMK AO2 WSHFT 1737 LTG DSNT E RAB47 TSB40 SLP181 TS SE MOV N P0000 60000 T02280206 10289 20222 55001
KGSP 061751Z 15015G21KT 5SM -TSRA FEW023 BKN028 OVC036 23/21 A3010 RMK AO2 WSHFT 1737 LTG DSNT E RAB47 TSB40 TS SE MOV N P0000
KGSP 061746Z 16014G25KT 10SM TS FEW018 SCT026 OVC037 24/20 A3010 RMK AO2 LTG DSNT E AND SE TSB40 TS SE MOV N T02440200
KGSP 061728Z 07009KT 10SM VCTS BKN032 OVC039 28/20 A3008 RMK AO2 LTG DSNT E AND SE TS SE MOV N T02780200
KGSP 061653Z 06009KT 10SM BKN030 BKN035 OVC070 28/20 A3009 RMK AO2 LTG DSNT SE RAE1555 SLP175 P0000 T02780200
KGSP 061553Z 07005KT 10SM -RA BKN034 OVC043 26/21 A3010 RMK AO2 LTG DSNT SW RAB27 SLP181 P0000 T02610206
KGSP 061535Z 07006KT 10SM -RA SCT034 OVC041 26/19 A3011 RMK AO2 LTG DSNT SW RAB27 P0000 T02610194
KGSP 061453Z 07005KT 10SM SCT024 BKN029 BKN038 27/19 A3010 RMK AO2 SLP180 T02670194 51009
KGSP 061353Z 05004KT 10SM SCT016 SCT023 BKN032 26/21 A3010 RMK AO2 SLP179 T02560211
KGSP 061253Z 05005KT 10SM FEW011 SCT032 24/21 A3009 RMK AO2 SLP175 T02440206
KGSP 061153Z 04004KT 9SM CLR 22/20 A3007 RMK AO2 SLP171 T02220200 10228 20194 51014
KGSP 061053Z 00000KT 8SM FEW010 20/19 A3007 RMK AO2 SLP169 T02000189
KGSP 061036Z 00000KT 9SM SCT010 21/19 A3006 RMK AO2 T02060189
KGSP 061029Z 00000KT 9SM BKN009 20/18 A3006 RMK AO2 T02000183
KGSP 060953Z 03004KT 10SM CLR 19/18 A3005 RMK AO2 SLP161 T01940183
KGSP 060853Z AUTO 00000KT 10SM OVC040 20/18 A3003 RMK AO2 SLP156 T02000183 55003
KGSP 060753Z AUTO 00000KT 10SM CLR 21/18 A3003 RMK AO2 SLP155 T02060183
KGSP 060653Z AUTO 00000KT 10SM CLR 21/18 A3003 RMK AO2 SLP157 T02060183
KGSP 060553Z AUTO 00000KT 10SM CLR 23/18 A3004 RMK AO2 SLP158 T02330178 10294 20233 50002
KGSP 060453Z AUTO 14003KT 10SM CLR 25/18 A3004 RMK AO2 SLP159 T02500178 403330217
KGSP 060353Z AUTO 14004KT 10SM CLR 26/17 A3004 RMK AO2 SLP158 T02560172
KGSP 060253Z 13007KT 10SM CLR 27/16 A3003 RMK AO2 SLP156 T02670161 53020
KGSP 060153Z 13004KT 10SM CLR 27/19 A3001 RMK AO2 SLP149 T02670194
KGSP 060053Z 15004KT 10SM CLR 28/19 A2999 RMK AO2 SLP141 T02780194